createdAt,value
2022-10-18T00:01:14.518Z,20.98
2022-10-18T00:06:16.363Z,20.27
2022-10-18T00:08:44.375Z,20.92
2022-10-18T00:11:13.837Z,19.42
2022-10-18T00:13:41.841Z,20.92
2022-10-18T00:16:13.548Z,19.08
2022-10-18T00:18:42.163Z,20.83
2022-10-18T00:21:12.921Z,17.63
2022-10-18T00:23:41.336Z,19.88
2022-10-18T00:26:11.973Z,22.10
2022-10-18T00:28:42.271Z,19.23
2022-10-18T00:31:15.156Z,19.73
2022-10-18T00:33:44.326Z,19.98
2022-10-18T00:36:13.519Z,19.05
2022-10-18T00:38:41.939Z,19.15
2022-10-18T00:41:11.851Z,18.83
2022-10-18T00:43:59.146Z,19.77
2022-10-18T00:46:28.920Z,20.08
2022-10-18T00:48:59.243Z,20.00
2022-10-18T00:51:29.973Z,18.90
2022-10-18T00:53:58.472Z,17.98
2022-10-18T00:56:26.712Z,22.70
2022-10-18T00:58:56.851Z,22.25
2022-10-18T01:01:28.383Z,19.48
2022-10-18T01:03:58.593Z,19.80
2022-10-18T01:06:28.400Z,19.08
2022-10-18T01:09:18.131Z,19.98
2022-10-18T01:12:08.387Z,19.17
2022-10-18T01:14:46.236Z,18.65
2022-10-18T01:17:21.496Z,18.38
2022-10-18T01:20:16.497Z,19.50
2022-10-18T01:22:48.756Z,19.67
2022-10-18T01:25:33.851Z,17.92
2022-10-18T01:28:13.462Z,19.00
2022-10-18T01:30:51.085Z,18.17
2022-10-18T01:33:33.894Z,18.27
2022-10-18T01:36:07.400Z,19.60
2022-10-18T01:38:38.185Z,18.35
2022-10-18T01:41:11.837Z,18.08
2022-10-18T01:43:44.724Z,18.98
2022-10-18T01:46:17.078Z,18.48
2022-10-18T01:48:45.634Z,18.35
2022-10-18T01:51:13.953Z,18.48
2022-10-18T01:53:42.415Z,17.58
2022-10-18T01:56:21.336Z,20.15
2022-10-18T01:58:57.692Z,17.40
2022-10-18T02:01:34.867Z,15.88
2022-10-18T02:04:12.659Z,18.73
2022-10-18T02:06:46.164Z,17.35
2022-10-18T02:09:20.126Z,17.90
2022-10-18T02:11:51.371Z,18.60
2022-10-18T02:14:21.504Z,17.60
2022-10-18T02:16:53.123Z,16.55
2022-10-18T02:19:27.186Z,18.40
2022-10-18T02:21:57.693Z,18.27
2022-10-18T02:24:32.951Z,16.88
2022-10-18T02:27:01.155Z,15.75
2022-10-18T02:29:30.455Z,19.17
2022-10-18T02:32:07.722Z,17.15
2022-10-18T02:34:40.401Z,15.00
2022-10-18T02:37:09.748Z,19.00
2022-10-18T02:39:40.661Z,18.00
2022-10-18T02:42:12.189Z,16.85
2022-10-18T02:44:40.652Z,17.88
2022-10-18T02:47:12.075Z,16.73
2022-10-18T02:49:40.227Z,17.23
2022-10-18T02:52:08.569Z,19.05
2022-10-18T02:54:36.919Z,17.52
2022-10-18T02:57:05.328Z,16.92
2022-10-18T02:59:33.782Z,17.08
2022-10-18T03:02:02.282Z,16.23
2022-10-18T03:04:31.825Z,17.20
2022-10-18T03:07:00.234Z,17.10
2022-10-18T03:09:28.347Z,17.88
2022-10-18T03:11:56.439Z,18.05
2022-10-18T03:14:24.796Z,16.48
2022-10-18T03:16:52.957Z,17.50
2022-10-18T03:19:21.117Z,17.20
2022-10-18T03:21:50.789Z,16.63
2022-10-18T03:24:19.302Z,17.92
2022-10-18T03:26:47.663Z,17.30
2022-10-18T03:29:15.933Z,17.25
2022-10-18T03:31:44.497Z,16.42
2022-10-18T03:34:12.900Z,18.17
2022-10-18T03:36:41.519Z,17.40
2022-10-18T03:39:12.337Z,15.98
2022-10-18T03:41:40.383Z,18.20
2022-10-18T03:44:08.557Z,17.95
2022-10-18T03:46:36.905Z,17.60
2022-10-18T03:49:04.950Z,18.17
2022-10-18T03:51:33.068Z,17.00
2022-10-18T03:54:01.155Z,16.98
2022-10-18T03:56:30.620Z,17.35
2022-10-18T03:58:58.675Z,16.90
2022-10-18T04:01:27.138Z,17.20
2022-10-18T04:03:55.158Z,16.17
2022-10-18T04:06:23.303Z,16.23
2022-10-18T04:08:51.588Z,17.67
2022-10-18T04:11:19.626Z,18.08
2022-10-18T04:13:50.313Z,18.00
2022-10-18T04:16:18.699Z,16.15
2022-10-18T04:18:47.841Z,18.77
2022-10-18T04:21:15.960Z,17.00
2022-10-18T04:23:44.056Z,17.70
2022-10-18T04:26:13.241Z,17.98
2022-10-18T04:28:41.737Z,17.45
2022-10-18T04:31:12.963Z,17.48
2022-10-18T04:33:41.348Z,17.27
2022-10-18T04:36:09.800Z,17.50
2022-10-18T04:38:37.892Z,18.00
2022-10-18T04:41:06.261Z,17.77
2022-10-18T04:43:34.786Z,17.08
2022-10-18T04:46:03.400Z,16.83
2022-10-18T04:48:32.818Z,16.42
2022-10-18T04:51:01.011Z,16.55
2022-10-18T04:53:29.085Z,14.20
2022-10-18T04:55:57.120Z,14.82
2022-10-18T04:58:25.500Z,14.52
2022-10-18T05:00:53.580Z,15.27
2022-10-18T05:03:21.642Z,16.05
2022-10-18T05:06:01.275Z,16.08
2022-10-18T05:08:30.652Z,16.27
2022-10-18T05:10:58.900Z,15.88
2022-10-18T05:13:27.402Z,17.15
2022-10-18T05:15:55.941Z,16.15
2022-10-18T05:18:24.178Z,17.60
2022-10-18T05:20:53.623Z,16.33
2022-10-18T05:23:21.679Z,17.67
2022-10-18T05:25:50.202Z,17.70
2022-10-18T05:28:38.759Z,16.67
2022-10-18T05:31:08.259Z,16.55
2022-10-18T05:33:36.861Z,16.25
2022-10-18T05:36:06.728Z,15.75
2022-10-18T05:41:07.018Z,14.82
2022-10-18T05:43:35.427Z,16.88
2022-10-18T05:46:04.238Z,17.45
2022-10-18T05:48:32.517Z,17.17
2022-10-18T05:51:01.016Z,16.13
2022-10-18T05:53:38.368Z,17.80
2022-10-18T05:56:07.730Z,15.50
2022-10-18T05:58:36.220Z,15.95
2022-10-18T06:01:05.470Z,17.83
2022-10-18T06:03:33.904Z,18.23
2022-10-18T06:06:02.610Z,17.65
2022-10-18T06:08:32.431Z,17.63
2022-10-18T06:11:00.856Z,16.73
2022-10-18T06:13:31.196Z,17.33
2022-10-18T06:16:00.895Z,18.30
2022-10-18T06:18:29.865Z,17.63
2022-10-18T06:20:59.120Z,21.05
2022-10-18T06:23:27.749Z,17.45
2022-10-18T06:26:00.430Z,18.67
2022-10-18T06:28:29.582Z,19.75
2022-10-18T06:30:57.958Z,20.20
2022-10-18T06:33:26.683Z,19.10
2022-10-18T06:35:59.133Z,19.42
2022-10-18T06:38:27.526Z,19.33
2022-10-18T06:40:57.866Z,18.98
2022-10-18T06:43:26.621Z,19.58
2022-10-18T06:45:55.423Z,19.42
2022-10-18T06:48:24.200Z,21.23
2022-10-18T06:50:54.034Z,21.83
2022-10-18T06:53:22.110Z,22.65
2022-10-18T06:55:50.224Z,22.15
2022-10-18T06:58:19.947Z,23.77
2022-10-18T07:00:48.136Z,21.30
2022-10-18T07:03:16.471Z,20.88
2022-10-18T07:05:44.838Z,22.45
2022-10-18T07:08:12.898Z,21.13
2022-10-18T07:10:41.215Z,21.17
2022-10-18T07:13:33.568Z,23.38
2022-10-18T07:16:07.144Z,21.80
2022-10-18T07:18:35.869Z,22.05
2022-10-18T07:21:04.907Z,21.35
2022-10-18T07:23:34.264Z,21.02
2022-10-18T07:26:02.889Z,21.60
2022-10-18T07:28:31.648Z,21.48
2022-10-18T07:31:07.227Z,23.60
2022-10-18T07:33:35.387Z,23.02
2022-10-18T07:36:04.137Z,22.67
2022-10-18T07:38:32.459Z,22.95
2022-10-18T07:41:01.734Z,20.52
2022-10-18T07:43:30.448Z,21.00
2022-10-18T07:46:01.037Z,21.95
2022-10-18T07:48:30.682Z,22.50
2022-10-18T07:51:00.708Z,22.10
2022-10-18T07:53:29.191Z,23.77
2022-10-18T07:56:01.374Z,22.40
2022-10-18T07:58:32.640Z,23.13
2022-10-18T08:01:04.509Z,23.70
2022-10-18T08:03:34.327Z,22.27
2022-10-18T08:06:02.688Z,23.15
2022-10-18T08:08:31.102Z,22.85
2022-10-18T08:11:04.288Z,23.58
2022-10-18T08:13:32.723Z,22.38
2022-10-18T08:16:01.904Z,23.55
2022-10-18T08:18:30.029Z,23.83
2022-10-18T08:21:01.480Z,22.70
2022-10-18T08:23:29.466Z,24.85
2022-10-18T08:25:57.913Z,27.65
2022-10-18T08:28:26.300Z,27.50
2022-10-18T08:30:54.687Z,28.48
2022-10-18T08:33:22.783Z,25.80
2022-10-18T08:35:56.915Z,25.85
2022-10-18T08:38:26.529Z,25.83
2022-10-18T08:40:54.703Z,24.98
2022-10-18T08:43:30.226Z,24.23
2022-10-18T08:45:58.701Z,24.00
2022-10-18T08:48:34.033Z,25.65
2022-10-18T08:51:04.568Z,26.15
2022-10-18T08:53:45.940Z,25.25
2022-10-18T08:56:15.565Z,33.13
2022-10-18T08:58:45.067Z,44.58
2022-10-18T09:01:26.013Z,44.28
2022-10-18T09:04:09.494Z,41.35
2022-10-18T09:06:45.749Z,45.42
2022-10-18T09:09:28.099Z,47.28
2022-10-18T09:12:04.359Z,39.17
2022-10-18T09:15:01.352Z,51.30
2022-10-18T09:17:36.426Z,45.53
2022-10-18T09:20:23.041Z,45.58
2022-10-18T09:22:55.514Z,49.70
2022-10-18T09:25:27.526Z,44.50
2022-10-18T09:28:00.641Z,45.83
2022-10-18T09:30:38.524Z,45.10
2022-10-18T09:33:27.055Z,43.42
2022-10-18T09:35:58.365Z,50.05
2022-10-18T09:38:31.949Z,60.05
2022-10-18T09:41:06.441Z,50.42
2022-10-18T09:43:48.556Z,56.35
2022-10-18T09:46:18.468Z,54.78
2022-10-18T09:48:50.664Z,48.88
2022-10-18T09:51:22.688Z,56.03
2022-10-18T09:54:05.225Z,49.53
2022-10-18T09:56:41.733Z,44.25
2022-10-18T09:59:28.176Z,52.83
2022-10-18T10:01:57.586Z,52.35
2022-10-18T10:04:25.571Z,48.28
2022-10-18T10:06:55.050Z,46.17
2022-10-18T10:09:29.338Z,53.30
2022-10-18T10:11:59.503Z,51.15
2022-10-18T10:14:30.301Z,48.83
2022-10-18T10:17:02.221Z,46.55
2022-10-18T10:19:33.573Z,51.60
2022-10-18T10:22:06.226Z,46.22
2022-10-18T10:24:46.395Z,41.95
2022-10-18T10:27:23.205Z,45.13
2022-10-18T10:29:57.041Z,46.30
2022-10-18T10:32:28.697Z,44.95
2022-10-18T10:34:57.000Z,42.90
2022-10-18T10:37:34.115Z,45.50
2022-10-18T10:40:21.045Z,40.25
2022-10-18T10:43:36.477Z,37.15
2022-10-18T10:46:10.046Z,33.92
2022-10-18T10:48:47.768Z,40.33
2022-10-18T10:51:19.215Z,38.20
2022-10-18T10:53:52.496Z,42.08
2022-10-18T10:56:25.938Z,40.28
2022-10-18T10:58:57.037Z,45.92
2022-10-18T11:01:28.158Z,36.67
2022-10-18T11:03:59.012Z,37.35
2022-10-18T11:06:41.958Z,41.38
2022-10-18T11:09:24.143Z,39.42
2022-10-18T11:12:03.771Z,36.40
2022-10-18T11:14:39.918Z,37.50
2022-10-18T11:17:18.763Z,40.35
2022-10-18T11:20:12.864Z,37.47
2022-10-18T11:22:45.743Z,37.25
2022-10-18T11:25:16.602Z,32.45
2022-10-18T11:27:54.313Z,33.00
2022-10-18T11:30:44.840Z,30.23
2022-10-18T11:33:49.465Z,30.02
2022-10-18T11:36:21.719Z,33.92
2022-10-18T11:38:57.291Z,31.17
2022-10-18T11:41:33.157Z,30.65
2022-10-18T11:44:04.219Z,31.08
2022-10-18T11:46:58.746Z,34.10
2022-10-18T11:49:57.692Z,28.08
2022-10-18T11:52:32.945Z,29.35
2022-10-18T11:55:21.568Z,26.85
2022-10-18T11:57:57.521Z,26.30
2022-10-18T12:00:39.418Z,32.08
2022-10-18T12:03:26.236Z,27.30
2022-10-18T12:05:56.744Z,34.17
2022-10-18T12:08:30.366Z,31.80
2022-10-18T12:11:05.883Z,30.00
2022-10-18T12:13:40.050Z,30.08
2022-10-18T12:16:10.517Z,31.38
2022-10-18T12:18:49.498Z,28.35
2022-10-18T12:21:25.503Z,29.60
2022-10-18T12:23:57.592Z,28.75
2022-10-18T12:26:27.001Z,29.75
2022-10-18T12:29:08.731Z,31.77
2022-10-18T12:31:41.203Z,29.00
2022-10-18T12:34:31.893Z,31.15
2022-10-18T12:37:35.171Z,32.72
2022-10-18T12:40:11.412Z,32.10
2022-10-18T12:42:45.089Z,32.13
2022-10-18T12:45:30.196Z,30.02
2022-10-18T12:48:01.958Z,26.55
2022-10-18T12:50:35.269Z,27.63
2022-10-18T12:53:07.666Z,23.25
2022-10-18T12:55:38.106Z,23.73
2022-10-18T12:58:32.495Z,23.30
2022-10-18T13:01:02.991Z,30.33
2022-10-18T13:03:55.099Z,24.08
2022-10-18T13:06:25.256Z,20.00
2022-10-18T13:09:18.517Z,19.10
2022-10-18T13:11:46.625Z,17.40
2022-10-18T13:14:44.070Z,19.85
2022-10-18T13:17:30.846Z,19.45
2022-10-18T13:20:25.525Z,17.75
2022-10-18T13:23:06.697Z,19.38
2022-10-18T13:25:47.133Z,18.13
2022-10-18T13:28:25.000Z,18.45
2022-10-18T13:30:58.639Z,19.75
2022-10-18T13:33:35.261Z,19.67
2022-10-18T13:36:06.199Z,20.30
2022-10-18T13:38:48.539Z,21.65
2022-10-18T13:41:19.296Z,18.48
2022-10-18T13:44:28.394Z,18.63
2022-10-18T13:47:36.620Z,16.88
2022-10-18T13:50:31.547Z,17.63
2022-10-18T13:53:29.632Z,15.45
2022-10-18T13:56:16.123Z,16.23
2022-10-18T13:59:06.126Z,15.55
2022-10-18T14:01:53.413Z,14.80
2022-10-18T14:04:53.073Z,14.02
2022-10-18T14:07:21.846Z,18.35
2022-10-18T14:09:54.948Z,14.45
2022-10-18T14:12:30.418Z,14.65
2022-10-18T14:15:04.629Z,14.15
2022-10-18T14:17:40.963Z,16.80
2022-10-18T14:20:24.800Z,15.73
2022-10-18T14:23:04.841Z,14.52
2022-10-18T14:25:35.775Z,12.90
2022-10-18T14:28:13.681Z,13.07
2022-10-18T14:30:56.472Z,14.73
2022-10-18T14:33:32.748Z,14.57
2022-10-18T14:36:03.872Z,12.68
2022-10-18T14:38:32.093Z,13.60
2022-10-18T14:41:17.020Z,12.05
2022-10-18T14:43:48.170Z,12.52
2022-10-18T14:46:26.618Z,15.80
2022-10-18T14:48:58.850Z,12.77
2022-10-18T14:51:27.666Z,13.93
2022-10-18T14:53:56.917Z,11.40
2022-10-18T14:56:29.110Z,11.32
2022-10-18T14:59:02.489Z,13.70
2022-10-18T15:01:33.254Z,9.50
2022-10-18T15:04:06.136Z,10.32
2022-10-18T15:06:34.497Z,11.43
2022-10-18T15:09:05.037Z,10.98
2022-10-18T15:11:33.885Z,8.68
2022-10-18T15:14:06.801Z,10.85
2022-10-18T15:16:36.127Z,9.32
2022-10-18T15:19:07.079Z,10.02
2022-10-18T15:21:36.645Z,10.50
2022-10-18T15:24:22.313Z,9.65
2022-10-18T15:26:51.589Z,8.77
2022-10-18T15:29:22.175Z,10.65
2022-10-18T15:31:51.476Z,8.32
2022-10-18T15:34:22.596Z,7.82
2022-10-18T15:36:54.060Z,8.65
2022-10-18T15:39:24.194Z,8.20
2022-10-18T15:41:53.961Z,9.00
2022-10-18T15:44:26.590Z,9.13
2022-10-18T15:46:56.926Z,8.80
2022-10-18T15:50:01.401Z,9.13
2022-10-18T15:52:37.868Z,9.20
2022-10-18T15:55:48.041Z,7.60
2022-10-18T15:58:22.582Z,8.25
2022-10-18T16:00:57.340Z,6.57
2022-10-18T16:03:25.980Z,8.75
2022-10-18T16:05:57.429Z,8.57
2022-10-18T16:08:28.225Z,8.45
2022-10-18T16:10:56.554Z,8.45
2022-10-18T16:13:24.960Z,8.27
2022-10-18T16:15:56.157Z,7.85
2022-10-18T16:18:26.100Z,7.63
2022-10-18T16:20:54.636Z,7.55
2022-10-18T16:23:24.479Z,6.68
2022-10-18T16:25:53.095Z,7.78
2022-10-18T16:28:23.692Z,7.03
2022-10-18T16:30:59.334Z,7.00
2022-10-18T16:33:27.838Z,8.27
2022-10-18T16:35:55.866Z,7.65
2022-10-18T16:38:32.642Z,7.63
2022-10-18T16:41:03.305Z,10.70
2022-10-18T16:43:31.738Z,7.78
2022-10-18T16:46:01.374Z,8.33
2022-10-18T16:48:30.500Z,7.80
2022-10-18T16:50:59.302Z,10.03
2022-10-18T16:53:28.193Z,7.67
2022-10-18T16:55:58.793Z,7.17
2022-10-18T16:58:28.267Z,7.13
2022-10-18T17:00:56.836Z,6.83
2022-10-18T17:03:26.576Z,5.53
2022-10-18T17:05:56.203Z,5.83
2022-10-18T17:08:26.367Z,6.23
2022-10-18T17:10:56.518Z,6.33
2022-10-18T17:13:26.256Z,6.90
2022-10-18T17:15:54.724Z,9.23
2022-10-18T17:18:27.577Z,7.10
2022-10-18T17:20:56.572Z,6.83
2022-10-18T17:23:24.929Z,24.07
2022-10-18T17:26:05.040Z,6.60
2022-10-18T17:28:35.709Z,6.47
2022-10-18T17:31:04.091Z,6.17
2022-10-18T17:33:33.471Z,10.43
2022-10-18T17:36:01.530Z,7.40
2022-10-18T17:38:29.888Z,8.00
2022-10-18T17:40:58.212Z,9.33
2022-10-18T17:43:26.895Z,9.47
2022-10-18T17:45:56.877Z,8.87
2022-10-18T17:48:25.980Z,8.60
2022-10-18T17:50:55.449Z,8.73
2022-10-18T17:53:28.331Z,7.80
2022-10-18T17:56:02.530Z,8.97
2022-10-18T17:58:31.289Z,11.13
2022-10-18T18:01:08.589Z,9.80
2022-10-18T18:03:36.888Z,10.33
2022-10-18T18:06:18.346Z,13.63
2022-10-18T18:08:47.216Z,11.50
2022-10-18T18:11:15.610Z,6.97
2022-10-18T18:13:43.674Z,8.93
2022-10-18T18:16:14.034Z,8.47
2022-10-18T18:18:42.167Z,6.50
2022-10-18T18:21:10.444Z,6.43
2022-10-18T18:23:39.985Z,6.23
2022-10-18T18:26:08.534Z,5.77
2022-10-18T18:28:37.155Z,5.37
2022-10-18T18:31:09.328Z,5.77
2022-10-18T18:33:38.205Z,5.83
2022-10-18T18:36:07.479Z,5.73
2022-10-18T18:38:37.405Z,7.50
2022-10-18T18:41:11.507Z,6.10
2022-10-18T18:43:40.899Z,8.20
2022-10-18T18:46:09.349Z,7.87
2022-10-18T18:48:38.033Z,7.87
2022-10-18T18:51:09.543Z,6.40
2022-10-18T18:53:39.123Z,6.57
2022-10-18T18:56:11.786Z,7.00
2022-10-18T18:58:42.503Z,12.13
2022-10-18T19:01:12.977Z,7.03
2022-10-18T19:03:42.796Z,7.60
2022-10-18T19:06:14.329Z,7.13
2022-10-18T19:08:44.697Z,9.20
2022-10-18T19:11:18.109Z,6.17
2022-10-18T19:13:48.172Z,6.13
2022-10-18T19:16:22.092Z,6.93
2022-10-18T19:18:54.905Z,7.40
2022-10-18T19:21:26.913Z,9.47
2022-10-18T19:23:56.134Z,6.93
2022-10-18T19:26:35.654Z,10.03
2022-10-18T19:29:07.331Z,5.97
2022-10-18T19:31:36.076Z,5.43
2022-10-18T19:34:05.716Z,6.13
2022-10-18T19:36:34.245Z,5.93
2022-10-18T19:39:02.695Z,7.10
2022-10-18T19:41:31.011Z,5.93
2022-10-18T19:44:00.560Z,5.93
2022-10-18T19:46:28.954Z,6.00
2022-10-18T19:48:57.341Z,9.83
2022-10-18T19:51:28.290Z,6.83
2022-10-18T19:53:58.146Z,6.83
2022-10-18T19:56:27.549Z,6.00
2022-10-18T19:58:55.985Z,6.90
2022-10-18T20:01:26.453Z,5.23
2022-10-18T20:03:54.868Z,4.97
2022-10-18T20:06:23.456Z,4.40
2022-10-18T20:08:52.200Z,4.83
2022-10-18T20:11:22.212Z,5.27
2022-10-18T20:13:51.036Z,4.57
2022-10-18T20:16:26.966Z,4.13
2022-10-18T20:18:58.629Z,4.37
2022-10-18T20:21:27.169Z,8.80
2022-10-18T20:23:55.605Z,5.40
2022-10-18T20:26:25.422Z,6.33
2022-10-18T20:28:57.797Z,5.40
2022-10-18T20:31:27.703Z,5.10
2022-10-18T20:33:59.439Z,4.87
2022-10-18T20:36:29.448Z,4.67
2022-10-18T20:38:57.872Z,4.90
2022-10-18T20:41:27.941Z,8.53
2022-10-18T20:43:57.362Z,5.17
2022-10-18T20:46:26.799Z,7.90
2022-10-18T20:48:55.466Z,6.43
2022-10-18T20:51:25.127Z,4.70
2022-10-18T20:53:54.438Z,4.93
2022-10-18T20:56:26.526Z,4.70
2022-10-18T20:58:56.986Z,4.77
2022-10-18T21:01:26.868Z,5.77
2022-10-18T21:03:57.020Z,7.23
2022-10-18T21:06:28.201Z,5.13
2022-10-18T21:08:57.672Z,5.30
2022-10-18T21:11:27.077Z,5.33
2022-10-18T21:13:57.608Z,12.83
2022-10-18T21:16:26.151Z,5.93
2022-10-18T21:18:54.884Z,6.80
2022-10-18T21:21:25.074Z,4.93
2022-10-18T21:23:55.123Z,5.53
2022-10-18T21:26:24.914Z,7.27
2022-10-18T21:28:53.798Z,4.40
2022-10-18T21:31:23.858Z,5.67
2022-10-18T21:33:55.284Z,4.80
2022-10-18T21:36:24.265Z,4.10
2022-10-18T21:38:54.276Z,4.30
2022-10-18T21:41:24.518Z,4.70
2022-10-18T21:43:54.765Z,4.63
2022-10-18T21:46:26.167Z,4.27
2022-10-18T21:48:56.233Z,4.00
2022-10-18T21:51:26.256Z,5.80
2022-10-18T21:53:57.932Z,3.80
2022-10-18T21:56:28.513Z,4.63
2022-10-18T21:58:57.780Z,4.90
2022-10-18T22:01:27.600Z,6.80
2022-10-18T22:03:57.497Z,4.00
2022-10-18T22:06:26.828Z,5.07
2022-10-18T22:08:58.400Z,4.37
2022-10-18T22:11:28.060Z,4.07
2022-10-18T22:13:56.944Z,6.73
2022-10-18T22:16:25.260Z,3.57
2022-10-18T22:18:54.473Z,3.83
2022-10-18T22:21:22.528Z,3.83
2022-10-18T22:23:52.347Z,4.43
2022-10-18T22:26:23.883Z,3.40
2022-10-18T22:28:56.383Z,3.43
2022-10-18T22:31:26.643Z,3.17
2022-10-18T22:33:55.282Z,3.30
2022-10-18T22:36:23.761Z,3.20
2022-10-18T22:38:52.089Z,3.23
2022-10-18T22:41:21.590Z,3.57
2022-10-18T22:43:51.680Z,3.53
2022-10-18T22:46:20.550Z,5.50
2022-10-18T22:48:48.984Z,2.80
2022-10-18T22:51:17.531Z,8.97
2022-10-18T22:53:45.996Z,4.43
2022-10-18T22:56:16.752Z,3.40
2022-10-18T22:58:48.033Z,3.67
2022-10-18T23:01:18.322Z,3.40
2022-10-18T23:03:46.884Z,2.90
2022-10-18T23:06:23.996Z,3.03
2022-10-18T23:08:52.579Z,3.63
2022-10-18T23:11:21.290Z,3.13
2022-10-18T23:13:51.024Z,12.00
2022-10-18T23:16:19.376Z,3.60
2022-10-18T23:18:51.496Z,4.13
2022-10-18T23:21:20.324Z,4.50
2022-10-18T23:23:48.763Z,3.93
2022-10-18T23:26:19.057Z,3.87
2022-10-18T23:28:48.822Z,11.30
2022-10-18T23:31:20.401Z,6.97
2022-10-18T23:33:50.277Z,7.80
2022-10-18T23:36:18.684Z,4.30
2022-10-18T23:38:47.296Z,5.13
2022-10-18T23:41:16.594Z,7.67
2022-10-18T23:43:45.758Z,5.10
2022-10-18T23:46:14.806Z,4.53
2022-10-18T23:48:44.323Z,5.17
2022-10-18T23:51:12.786Z,3.83
2022-10-18T23:53:41.339Z,3.97
2022-10-18T23:56:11.349Z,4.03
2022-10-18T23:58:39.794Z,3.90
